Terminal Aerodrome Forecast
Issued by NWS St Louis, MO

Home | Current Version | Previous Version | Text Only | Print | Product List | Glossary On
Versions: 1 2 3 4 5 6 7 8 9 10 11 12 13 14 15 16 17 18 19 20 21 22 23
607
FTUS43 KLSX 300744 AAC
TAFCOU
TAF AMD
KCOU 300744Z 3008/0106 12012G18KT 6SM -SHRA BR OVC005
     FM301200 10013KT 6SM BR OVC010
     FM301800 20009KT P6SM BKN035
     FM010000 33006KT P6SM SCT040 BKN120=

USA.gov is the U.S. government's official web portal to all federal, state and local government web resources and services.